Time;durP1;ratioP1;P1;durP2;ratioP2;P2;SDS_P1;SDS_P2;PMS_P1;PMS_P2;Temp;Humidity;BMP_temperature;BMP_pressure;BME280_temperature;BME280_humidity;BME280_pressure;Samples;Min_cycle;Max_cycle;Signal;HPM_P1;HPM_P2
2021/10/08 00:01:48;;;;;;;;;;;;;;;8.07;61.79;101818.64;1643727;86;21133;-74
2021/10/08 00:04:13;;;;;;;;;;;;;;;8.05;61.68;101816.59;1635135;86;20150;-78
2021/10/08 00:06:39;;;;;;;;;;;;;;;8.03;61.86;101810.56;1613753;87;20181;-72
2021/10/08 00:09:04;;;;;;;;;;;;;;;7.99;61.94;101815.67;1616656;87;20576;-70
2021/10/08 00:11:30;;;;;;;;;;;;;;;7.98;61.92;101816.13;1570865;89;20173;-71
2021/10/08 00:13:56;;;;;;;;;;;;;;;7.94;61.99;101817.73;1604011;88;21872;-71
2021/10/08 00:16:21;;;;;;;;;;;;;;;7.94;61.90;101822.54;1572166;89;20177;-70
2021/10/08 00:18:47;;;;;;;;;;;;;;;7.89;61.91;101817.57;1577985;89;20177;-73
2021/10/08 00:21:12;;;;;;;;;;;;;;;7.81;62.27;101816.36;1580487;89;20132;-71
2021/10/08 00:23:41;;;;;;;;;;;;;;;7.72;62.65;101823.89;1571086;89;20200;-72
2021/10/08 00:26:06;;;;;;;;;;;;;;;7.58;63.16;101821.73;1580087;89;21188;-73
2021/10/08 00:28:32;;;;;;;;;;;;;;;7.54;63.01;101828.50;1603626;89;20474;-73
2021/10/08 00:30:59;;;;;;;;;;;;;;;7.50;63.00;101829.65;1582903;89;20231;-72
2021/10/08 00:33:24;;;;;;;;;;;;;;;7.50;63.20;101827.02;1600817;88;20791;-71
2021/10/08 00:35:50;;;;;;;;;;;;;;;7.45;63.38;101829.55;1609619;87;20135;-76
2021/10/08 00:38:16;;;;;;;;;;;;;;;7.46;63.19;101833.39;1571639;89;22005;-71
2021/10/08 00:40:47;;;;;;;;;;;;;;;7.42;63.58;101837.14;1571854;89;20195;-72
2021/10/08 00:43:12;;;;;;;;;;;;;;;7.38;63.65;101831.72;1575870;90;20954;-74
2021/10/08 00:45:40;;;;;;;;;;;;;;;7.40;63.29;101841.66;1613913;87;20119;-74
2021/10/08 00:48:07;;;;;;;;;;;;;;;7.41;63.09;101832.84;1568194;89;20264;-72
2021/10/08 00:50:42;;;;;;;;;;;;;;;7.46;62.94;101842.59;1576049;89;22008;-72
2021/10/08 00:53:07;;;;;;;;;;;;;;;7.45;62.88;101835.64;1604219;87;20185;-73
2021/10/08 00:55:34;;;;;;;;;;;;;;;7.38;63.13;101830.41;1579248;89;20272;-72
2021/10/08 00:57:59;;;;;;;;;;;;;;;7.43;63.02;101840.16;1581628;89;20235;-77
2021/10/08 01:00:25;;;;;;;;;;;;;;;7.41;62.94;101839.41;1577234;89;20158;-73
2021/10/08 01:02:50;;;;;;;;;;;;;;;7.43;62.89;101838.01;1601806;88;21121;-73
2021/10/08 01:05:16;;;;;;;;;;;;;;;7.42;62.81;101836.30;1580666;89;20839;-74
2021/10/08 01:07:41;;;;;;;;;;;;;;;7.41;62.82;101839.41;1587663;87;20202;-71
2021/10/08 01:10:07;;;;;;;;;;;;;;;7.40;62.73;101848.23;1622788;86;20967;-71
2021/10/08 01:12:33;;;;;;;;;;;;;;;7.38;62.79;101842.23;1592911;88;20139;-70
2021/10/08 01:14:59;;;;;;;;;;;;;;;7.35;63.00;101843.73;1631809;86;20731;-72
2021/10/08 01:17:24;;;;;;;;;;;;;;;7.33;63.05;101844.27;1631237;87;20176;-70
2021/10/08 01:19:50;;;;;;;;;;;;;;;7.32;63.00;101850.00;1631036;86;20179;-75
2021/10/08 01:22:16;;;;;;;;;;;;;;;7.30;63.13;101853.66;1631380;86;20581;-71
2021/10/08 01:24:41;;;;;;;;;;;;;;;7.25;63.15;101857.88;1633090;86;20168;-71
2021/10/08 01:27:07;;;;;;;;;;;;;;;7.23;63.08;101851.04;1604282;87;21916;-72
2021/10/08 01:29:35;;;;;;;;;;;;;;;7.24;62.98;101863.22;1633218;86;20172;-71
2021/10/08 01:32:01;;;;;;;;;;;;;;;7.21;62.94;101860.33;1634237;86;20153;-75
2021/10/08 01:34:27;;;;;;;;;;;;;;;7.20;62.83;101853.38;1633100;86;20458;-71
2021/10/08 01:36:54;;;;;;;;;;;;;;;7.20;62.78;101858.62;1637771;86;20147;-71
2021/10/08 01:39:21;;;;;;;;;;;;;;;7.13;63.05;101856.84;1635867;86;21886;-71
2021/10/08 01:41:47;;;;;;;;;;;;;;;7.14;62.89;101854.58;1633772;86;20227;-70
2021/10/08 01:44:12;;;;;;;;;;;;;;;7.11;62.98;101853.92;1597242;88;20230;-71
2021/10/08 01:46:40;;;;;;;;;;;;;;;7.02;63.19;101850.05;1634795;86;20152;-70
2021/10/08 01:49:05;;;;;;;;;;;;;;;7.03;63.25;101856.17;1632635;86;20273;-71
2021/10/08 01:51:33;;;;;;;;;;;;;;;6.98;63.27;101853.81;1645583;85;21182;-71
2021/10/08 01:53:58;;;;;;;;;;;;;;;6.91;63.38;101857.73;1632277;86;20121;-71
2021/10/08 01:56:27;;;;;;;;;;;;;;;6.90;63.48;101862.14;1633886;86;20516;-72
2021/10/08 01:58:54;;;;;;;;;;;;;;;6.89;63.46;101869.63;1635656;86;20180;-79
2021/10/08 02:01:19;;;;;;;;;;;;;;;6.90;63.40;101877.03;1633143;86;20207;-78
2021/10/08 02:03:48;;;;;;;;;;;;;;;6.91;63.32;101876.11;1634810;86;21060;-80
2021/10/08 02:06:17;;;;;;;;;;;;;;;6.79;63.78;101873.27;1633978;86;20231;-71
2021/10/08 02:08:42;;;;;;;;;;;;;;;6.76;63.83;101868.20;1632483;86;20120;-74
2021/10/08 02:11:08;;;;;;;;;;;;;;;6.70;64.19;101873.80;1633219;86;20197;-72
2021/10/08 02:13:34;;;;;;;;;;;;;;;6.70;64.08;101880.84;1635293;86;20235;-72
2021/10/08 02:15:59;;;;;;;;;;;;;;;6.68;63.97;101877.44;1630914;86;21120;-71
2021/10/08 02:18:25;;;;;;;;;;;;;;;6.70;63.84;101888.72;1631163;86;20648;-71
2021/10/08 02:20:51;;;;;;;;;;;;;;;6.63;64.05;101883.81;1631583;86;20149;-71
2021/10/08 02:23:17;;;;;;;;;;;;;;;6.61;64.21;101887.45;1633318;86;20184;-70
2021/10/08 02:25:43;;;;;;;;;;;;;;;6.56;64.25;101889.50;1635238;86;20249;-70
2021/10/08 02:28:08;;;;;;;;;;;;;;;6.57;64.22;101885.92;1632697;86;21302;-71
2021/10/08 02:30:36;;;;;;;;;;;;;;;6.59;64.18;101890.64;1632675;86;20204;-75
2021/10/08 02:33:01;;;;;;;;;;;;;;;6.60;63.98;101896.25;1635730;86;20204;-69
2021/10/08 02:35:27;;;;;;;;;;;;;;;6.60;63.87;101901.50;1632347;86;20141;-71
2021/10/08 02:37:52;;;;;;;;;;;;;;;6.49;64.23;101899.95;1633930;86;20151;-72
2021/10/08 02:40:18;;;;;;;;;;;;;;;6.39;64.51;101907.03;1616239;86;20923;-71
2021/10/08 02:42:44;;;;;;;;;;;;;;;6.34;64.89;101907.77;1603098;88;20304;-77
2021/10/08 02:45:10;;;;;;;;;;;;;;;6.22;65.33;101916.31;1597982;89;20216;-74
2021/10/08 02:47:36;;;;;;;;;;;;;;;6.17;65.61;101915.70;1606003;87;20200;-80
2021/10/08 02:50:01;;;;;;;;;;;;;;;6.15;65.77;101921.50;1620895;87;20163;-74
2021/10/08 02:52:27;;;;;;;;;;;;;;;6.08;66.04;101919.68;1619834;87;21368;-74
2021/10/08 02:54:52;;;;;;;;;;;;;;;6.07;66.12;101916.19;1621959;87;20513;-75
2021/10/08 02:57:18;;;;;;;;;;;;;;;6.06;66.42;101921.08;1599041;88;20477;-72
2021/10/08 02:59:43;;;;;;;;;;;;;;;6.02;66.58;101919.54;1619725;88;20525;-73
2021/10/08 03:02:09;;;;;;;;;;;;;;;6.10;66.16;101919.96;1619511;88;20208;-71
2021/10/08 03:04:35;;;;;;;;;;;;;;;6.14;65.99;101915.86;1593254;88;22577;-80
2021/10/08 03:07:00;;;;;;;;;;;;;;;6.20;65.65;101916.84;1621414;86;20212;-72
2021/10/08 03:09:26;;;;;;;;;;;;;;;6.24;65.48;101922.31;1626486;86;20151;-79
2021/10/08 03:11:51;;;;;;;;;;;;;;;6.26;65.30;101928.30;1625607;86;20126;-72
2021/10/08 03:14:19;;;;;;;;;;;;;;;6.33;65.09;101931.46;1627438;86;21221;-72
2021/10/08 03:16:44;;;;;;;;;;;;;;;6.31;65.18;101932.86;1628765;86;21115;-72
2021/10/08 03:19:10;;;;;;;;;;;;;;;6.28;65.35;101938.27;1632711;86;20469;-72
2021/10/08 03:21:35;;;;;;;;;;;;;;;6.25;65.56;101941.90;1630444;86;20154;-73
2021/10/08 03:24:02;;;;;;;;;;;;;;;6.19;65.83;101950.10;1630768;86;20139;-74
2021/10/08 03:26:28;;;;;;;;;;;;;;;6.15;65.98;101943.80;1640413;86;20495;-71
2021/10/08 03:28:53;;;;;;;;;;;;;;;6.18;65.93;101946.25;1633477;85;21123;-73
2021/10/08 03:31:19;;;;;;;;;;;;;;;6.18;65.81;101948.87;1632244;87;20158;-73
2021/10/08 03:33:46;;;;;;;;;;;;;;;6.18;65.76;101947.09;1634046;86;20207;-72
2021/10/08 03:36:38;;;;;;;;;;;;;;;6.14;65.92;101953.89;1580470;89;21109;-73
2021/10/08 03:38:57;;;;;;;;;;;;;;;6.06;66.24;101956.48;1628944;86;20163;-71
2021/10/08 03:41:25;;;;;;;;;;;;;;;6.07;66.09;101964.71;1631025;86;21740;-70
2021/10/08 03:43:54;;;;;;;;;;;;;;;6.05;66.06;101963.13;1633758;86;20164;-72
2021/10/08 03:46:18;;;;;;;;;;;;;;;6.05;65.83;101960.02;1623440;86;20240;-71
2021/10/08 03:49:12;;;;;;;;;;;;;;;6.00;65.98;101959.91;1615722;88;20850;-72
2021/10/08 03:51:27;;;;;;;;;;;;;;;6.04;65.71;101963.56;1579428;88;20179;-72
2021/10/08 03:53:53;;;;;;;;;;;;;;;6.06;65.54;101968.28;1622874;86;21236;-77
2021/10/08 03:56:20;;;;;;;;;;;;;;;6.05;65.39;101960.50;1626389;86;20240;-71
2021/10/08 03:58:48;;;;;;;;;;;;;;;5.99;65.41;101960.35;1625808;86;20203;-71
2021/10/08 04:01:13;;;;;;;;;;;;;;;5.99;65.34;101961.66;1630221;86;20181;-79
2021/10/08 04:03:41;;;;;;;;;;;;;;;5.98;65.34;101965.23;1632514;86;20172;-71
2021/10/08 04:06:07;;;;;;;;;;;;;;;5.96;65.44;101965.73;1634562;86;20184;-71
2021/10/08 04:08:33;;;;;;;;;;;;;;;5.91;65.47;101966.44;1630152;86;20198;-70
2021/10/08 04:10:58;;;;;;;;;;;;;;;5.92;65.50;101970.77;1621867;86;20156;-73
2021/10/08 04:13:26;;;;;;;;;;;;;;;5.90;65.49;101962.12;1604911;88;20435;-71
2021/10/08 04:15:51;;;;;;;;;;;;;;;5.91;65.57;101965.13;1634714;86;20185;-73
2021/10/08 04:18:17;;;;;;;;;;;;;;;5.90;65.62;101964.30;1625442;86;21006;-71
2021/10/08 04:20:43;;;;;;;;;;;;;;;5.89;65.59;101961.28;1632787;86;20229;-71
2021/10/08 04:23:16;;;;;;;;;;;;;;;5.88;65.61;101963.98;1633834;86;20147;-71
2021/10/08 04:25:42;;;;;;;;;;;;;;;5.88;65.76;101962.67;1631911;86;20161;-70
2021/10/08 04:28:10;;;;;;;;;;;;;;;5.87;65.76;101965.77;1632896;86;20242;-70
2021/10/08 04:30:35;;;;;;;;;;;;;;;5.86;65.71;101959.30;1632908;86;20156;-70
2021/10/08 04:33:01;;;;;;;;;;;;;;;5.86;65.73;101964.06;1631333;86;20172;-71
2021/10/08 04:35:28;;;;;;;;;;;;;;;5.85;65.80;101964.14;1597206;88;20239;-71
2021/10/08 04:37:55;;;;;;;;;;;;;;;5.87;65.70;101967.08;1608555;87;20143;-71
2021/10/08 04:40:22;;;;;;;;;;;;;;;5.89;65.70;101969.63;1587966;88;20609;-74
2021/10/08 04:42:48;;;;;;;;;;;;;;;5.87;65.65;101968.83;1600464;88;21021;-72
2021/10/08 04:45:13;;;;;;;;;;;;;;;5.85;66.00;101972.84;1599643;88;20181;-71
2021/10/08 04:47:39;;;;;;;;;;;;;;;5.89;65.85;101980.11;1592231;88;21256;-73
2021/10/08 04:50:05;;;;;;;;;;;;;;;5.88;65.84;101979.72;1622341;87;20149;-70
2021/10/08 04:52:33;;;;;;;;;;;;;;;5.90;65.90;101980.47;1590662;87;20181;-70
2021/10/08 04:54:58;;;;;;;;;;;;;;;5.80;66.16;101981.90;1619151;86;21991;-70
2021/10/08 04:57:25;;;;;;;;;;;;;;;5.75;66.35;101984.28;1620119;87;20165;-70
2021/10/08 04:59:50;;;;;;;;;;;;;;;5.65;66.66;101979.13;1624899;86;20204;-70
2021/10/08 05:02:16;;;;;;;;;;;;;;;5.63;66.87;101984.91;1625572;86;20614;-72
2021/10/08 05:04:42;;;;;;;;;;;;;;;5.60;66.77;101989.00;1622696;87;20127;-71
2021/10/08 05:07:07;;;;;;;;;;;;;;;5.57;67.06;101997.86;1618186;87;21054;-70
2021/10/08 05:09:33;;;;;;;;;;;;;;;5.57;66.77;101990.47;1619926;87;20159;-70
2021/10/08 05:12:02;;;;;;;;;;;;;;;5.48;67.03;101995.70;1625431;86;20143;-73
2021/10/08 05:14:27;;;;;;;;;;;;;;;5.44;67.23;101994.19;1625069;86;20200;-70
2021/10/08 05:16:53;;;;;;;;;;;;;;;5.48;67.27;101990.46;1623044;86;20147;-71
2021/10/08 05:19:19;;;;;;;;;;;;;;;5.47;67.27;101997.09;1627259;86;21114;-74
2021/10/08 05:21:48;;;;;;;;;;;;;;;5.56;66.99;101995.31;1627529;86;20191;-73
2021/10/08 05:24:15;;;;;;;;;;;;;;;5.66;66.81;102004.41;1625962;86;20144;-71
2021/10/08 05:26:40;;;;;;;;;;;;;;;5.70;66.63;102011.20;1626119;86;20152;-70
2021/10/08 05:29:06;;;;;;;;;;;;;;;5.78;66.37;102009.95;1627241;86;20156;-72
2021/10/08 05:31:35;;;;;;;;;;;;;;;5.85;66.07;102012.65;1626229;86;21119;-74
2021/10/08 05:34:01;;;;;;;;;;;;;;;5.89;66.10;102015.50;1626148;87;20104;-72
2021/10/08 05:36:28;;;;;;;;;;;;;;;5.96;65.90;102012.09;1600186;87;20522;-73
2021/10/08 05:38:54;;;;;;;;;;;;;;;5.98;65.70;102017.69;1630989;86;20179;-73
2021/10/08 05:41:20;;;;;;;;;;;;;;;6.02;65.52;102017.88;1632548;86;20341;-71
2021/10/08 05:43:46;;;;;;;;;;;;;;;6.10;65.37;102018.80;1632824;86;20618;-70
2021/10/08 05:46:13;;;;;;;;;;;;;;;6.13;65.95;102016.48;1604816;86;20152;-75
2021/10/08 05:48:40;;;;;;;;;;;;;;;6.15;65.69;102022.02;1607955;88;20172;-75
2021/10/08 05:51:07;;;;;;;;;;;;;;;6.15;65.93;102019.39;1606060;89;20634;-71
2021/10/08 05:53:32;;;;;;;;;;;;;;;6.15;65.88;102026.42;1605497;87;20304;-72
2021/10/08 05:55:59;;;;;;;;;;;;;;;6.10;65.44;102028.81;1603342;88;22152;-71
2021/10/08 05:58:26;;;;;;;;;;;;;;;6.25;65.60;102032.89;1627834;86;20655;-74
2021/10/08 06:00:51;;;;;;;;;;;;;;;6.34;65.09;102032.40;1579630;89;20207;-75
2021/10/08 06:03:19;;;;;;;;;;;;;;;6.43;64.81;102032.34;1609219;87;20573;-77
2021/10/08 06:05:46;;;;;;;;;;;;;;;6.42;64.42;102036.76;1606897;88;20197;-73
2021/10/08 06:08:14;;;;;;;;;;;;;;;6.45;64.16;102043.16;1625100;87;21306;-71
2021/10/08 06:10:40;;;;;;;;;;;;;;;6.51;63.95;102041.98;1623694;87;20203;-78
2021/10/08 06:13:08;;;;;;;;;;;;;;;6.55;63.89;102045.28;1594174;88;20171;-71
2021/10/08 06:15:33;;;;;;;;;;;;;;;6.56;63.57;102046.99;1596788;87;20139;-71
2021/10/08 06:18:01;;;;;;;;;;;;;;;6.54;63.64;102043.58;1623800;87;20151;-76
2021/10/08 06:20:26;;;;;;;;;;;;;;;6.52;63.66;102046.28;1622896;87;20699;-71
2021/10/08 06:22:53;;;;;;;;;;;;;;;6.61;63.70;102052.83;1621780;87;20592;-70
2021/10/08 06:25:19;;;;;;;;;;;;;;;6.61;63.64;102047.58;1625605;86;20149;-71
2021/10/08 06:27:47;;;;;;;;;;;;;;;6.68;63.80;102054.20;1604348;88;20169;-77
2021/10/08 06:30:14;;;;;;;;;;;;;;;6.74;63.57;102060.43;1608555;87;20139;-73
2021/10/08 06:32:40;;;;;;;;;;;;;;;6.80;63.53;102067.94;1607441;87;21158;-71
2021/10/08 06:35:07;;;;;;;;;;;;;;;6.87;63.40;102070.23;1603794;86;20216;-73
2021/10/08 06:37:32;;;;;;;;;;;;;;;6.90;63.07;102072.24;1601268;88;20633;-74
2021/10/08 06:39:58;;;;;;;;;;;;;;;6.93;63.12;102076.45;1600422;88;20149;-71
2021/10/08 06:42:24;;;;;;;;;;;;;;;6.89;63.52;102081.05;1600630;88;20415;-74
2021/10/08 06:44:53;;;;;;;;;;;;;;;6.97;63.54;102080.62;1596300;88;22307;-72
2021/10/08 06:47:19;;;;;;;;;;;;;;;7.02;63.10;102078.58;1625938;86;20152;-73
2021/10/08 06:49:45;;;;;;;;;;;;;;;7.05;62.98;102086.28;1627915;86;20249;-71
2021/10/08 06:52:13;;;;;;;;;;;;;;;7.12;62.92;102085.02;1630319;86;20668;-73
2021/10/08 06:54:39;;;;;;;;;;;;;;;7.19;62.83;102092.08;1628654;86;20175;-72
2021/10/08 06:57:04;;;;;;;;;;;;;;;7.22;62.39;102089.77;1623130;86;21403;-73
2021/10/08 06:59:30;;;;;;;;;;;;;;;7.23;62.32;102094.09;1607605;87;20185;-75
2021/10/08 07:01:56;;;;;;;;;;;;;;;7.19;62.56;102094.27;1605590;87;20194;-76
2021/10/08 07:04:22;;;;;;;;;;;;;;;7.28;62.44;102095.98;1627950;86;20265;-73
2021/10/08 07:06:49;;;;;;;;;;;;;;;7.35;62.15;102103.92;1606287;88;20172;-72
2021/10/08 07:09:15;;;;;;;;;;;;;;;7.46;62.10;102101.52;1624664;85;21175;-74
2021/10/08 07:11:40;;;;;;;;;;;;;;;7.54;61.91;102092.71;1637252;86;20771;-73
2021/10/08 07:14:08;;;;;;;;;;;;;;;7.64;61.79;102096.96;1640190;86;20248;-71
2021/10/08 07:16:33;;;;;;;;;;;;;;;7.67;60.86;102093.31;1640483;86;20562;-71
2021/10/08 07:19:07;;;;;;;;;;;;;;;7.70;60.57;102099.72;1640114;86;20167;-72
2021/10/08 07:21:29;;;;;;;;;;;;;;;7.70;60.39;102103.66;1639933;86;20141;-73
2021/10/08 07:23:55;;;;;;;;;;;;;;;7.73;60.02;102104.31;1639469;86;20322;-73
2021/10/08 07:26:22;;;;;;;;;;;;;;;7.82;60.37;102108.20;1640343;86;20154;-71
2021/10/08 07:28:47;;;;;;;;;;;;;;;7.91;60.06;102116.88;1639613;86;20195;-71
2021/10/08 07:31:13;;;;;;;;;;;;;;;8.00;60.28;102114.18;1640798;85;20199;-72
2021/10/08 07:33:41;;;;;;;;;;;;;;;8.07;59.86;102112.02;1639681;86;21026;-75
2021/10/08 07:36:06;;;;;;;;;;;;;;;8.12;59.74;102116.53;1641941;86;20150;-72
2021/10/08 07:38:33;;;;;;;;;;;;;;;8.22;60.09;102115.53;1640220;86;20170;-73
2021/10/08 07:41:00;;;;;;;;;;;;;;;8.23;59.62;102111.94;1648173;85;20173;-75
2021/10/08 07:43:26;;;;;;;;;;;;;;;8.27;59.66;102108.20;1639345;86;20690;-73
2021/10/08 07:45:51;;;;;;;;;;;;;;;8.38;59.78;102114.13;1639305;86;21202;-74
2021/10/08 07:48:17;;;;;;;;;;;;;;;8.48;59.46;102113.95;1639295;86;21097;-78
2021/10/08 07:50:44;;;;;;;;;;;;;;;8.56;59.49;102122.25;1642230;86;20178;-74
2021/10/08 07:53:10;;;;;;;;;;;;;;;8.62;59.00;102117.92;1642151;86;20188;-79
2021/10/08 07:55:37;;;;;;;;;;;;;;;8.71;58.73;102120.92;1641958;86;20260;-75
2021/10/08 07:58:02;;;;;;;;;;;;;;;8.76;58.57;102120.16;1640847;86;21182;-72
2021/10/08 08:00:28;;;;;;;;;;;;;;;8.73;58.70;102128.25;1640108;86;20793;-76
2021/10/08 08:02:53;;;;;;;;;;;;;;;8.80;58.52;102126.94;1644528;85;20140;-74
2021/10/08 08:05:19;;;;;;;;;;;;;;;8.86;58.51;102129.19;1642807;86;20140;-71
2021/10/08 08:07:46;;;;;;;;;;;;;;;8.90;58.27;102128.06;1642010;86;20462;-73
2021/10/08 08:10:16;;;;;;;;;;;;;;;8.97;58.13;102128.52;1639026;86;21924;-73
2021/10/08 08:12:42;;;;;;;;;;;;;;;9.04;58.22;102122.38;1629312;86;20488;-71
2021/10/08 08:15:08;;;;;;;;;;;;;;;9.14;57.89;102125.64;1626699;86;20171;-70
2021/10/08 08:17:34;;;;;;;;;;;;;;;9.23;57.80;102121.59;1626187;88;20171;-75
2021/10/08 08:20:02;;;;;;;;;;;;;;;9.28;56.71;102128.72;1629022;86;20295;-73
2021/10/08 08:22:30;;;;;;;;;;;;;;;9.37;56.97;102128.61;1629224;86;21226;-72
2021/10/08 08:24:57;;;;;;;;;;;;;;;9.44;56.57;102122.45;1624583;88;20159;-74
2021/10/08 08:27:23;;;;;;;;;;;;;;;9.54;56.13;102127.51;1628398;86;20185;-72
2021/10/08 08:29:48;;;;;;;;;;;;;;;9.53;54.82;102128.45;1630331;88;20166;-71
2021/10/08 08:32:15;;;;;;;;;;;;;;;9.57;54.62;102127.76;1605249;86;20824;-78
2021/10/08 08:34:41;;;;;;;;;;;;;;;9.61;54.61;102130.58;1626123;86;21193;-72
2021/10/08 08:37:07;;;;;;;;;;;;;;;9.73;54.69;102131.58;1628836;86;20233;-73
2021/10/08 08:39:34;;;;;;;;;;;;;;;9.84;54.90;102129.05;1627259;86;20682;-75
2021/10/08 08:41:59;;;;;;;;;;;;;;;9.85;53.80;102132.05;1630081;86;20330;-74
2021/10/08 08:44:25;;;;;;;;;;;;;;;9.90;54.01;102133.92;1633506;86;20148;-75
2021/10/08 08:46:51;;;;;;;;;;;;;;;9.95;53.74;102131.81;1627664;86;21158;-73
2021/10/08 08:49:16;;;;;;;;;;;;;;;10.03;53.98;102132.13;1610571;86;20171;-77
2021/10/08 08:51:42;;;;;;;;;;;;;;;10.10;53.66;102135.67;1626567;86;20191;-74
2021/10/08 08:54:08;;;;;;;;;;;;;;;10.16;53.33;102133.94;1626179;86;20389;-72
2021/10/08 08:56:37;;;;;;;;;;;;;;;10.22;52.16;102132.20;1628239;86;20300;-72
2021/10/08 08:59:04;;;;;;;;;;;;;;;10.25;51.40;102130.67;1623740;86;20124;-74
2021/10/08 09:01:32;;;;;;;;;;;;;;;10.34;51.50;102130.08;1637646;85;20246;-73
2021/10/08 09:04:04;;;;;;;;;;;;;;;10.44;51.24;102131.63;1622926;86;20530;-72
2021/10/08 09:06:31;;;;;;;;;;;;;;;10.48;50.89;102129.61;1627587;86;20197;-74
2021/10/08 09:08:57;;;;;;;;;;;;;;;10.61;50.16;102129.10;1626605;86;20551;-79
2021/10/08 09:11:37;;;;;;;;;;;;;;;10.74;49.40;102129.94;1626159;86;21099;-72
2021/10/08 09:14:19;;;;;;;;;;;;;;;10.89;49.10;102131.13;1624784;86;20160;-71
2021/10/08 09:17:15;;;;;;;;;;;;;;;11.01;49.74;102132.05;1630520;86;20440;-71
2021/10/08 09:19:51;;;;;;;;;;;;;;;11.13;49.34;102135.97;1635006;86;20175;-71
2021/10/08 09:22:18;;;;;;;;;;;;;;;11.27;48.66;102136.78;1633152;86;20518;-71
2021/10/08 09:24:43;;;;;;;;;;;;;;;11.35;47.98;102137.06;1631361;86;21159;-72
2021/10/08 09:27:13;;;;;;;;;;;;;;;11.44;48.16;102141.68;1631507;86;20449;-70
2021/10/08 09:29:51;;;;;;;;;;;;;;;11.48;47.95;102129.92;1631974;86;20205;-72
2021/10/08 09:32:16;;;;;;;;;;;;;;;11.56;47.44;102133.78;1636512;84;20155;-73
2021/10/08 09:34:44;;;;;;;;;;;;;;;11.59;46.65;102134.42;1639027;86;20222;-70
2021/10/08 09:37:12;;;;;;;;;;;;;;;11.59;45.06;102133.10;1632568;86;20183;-73
2021/10/08 09:39:39;;;;;;;;;;;;;;;11.66;44.99;102132.16;1636330;86;20159;-72
2021/10/08 09:42:12;;;;;;;;;;;;;;;11.78;44.82;102128.59;1601554;88;20247;-73
2021/10/08 09:44:49;;;;;;;;;;;;;;;11.90;45.52;102123.33;1626561;86;20333;-72
2021/10/08 09:47:21;;;;;;;;;;;;;;;11.97;44.85;102124.09;1623597;86;20661;-72
2021/10/08 09:49:50;;;;;;;;;;;;;;;12.03;44.16;102118.83;1632679;86;21967;-71
2021/10/08 09:52:29;;;;;;;;;;;;;;;12.01;42.98;102122.08;1598942;88;20260;-70
2021/10/08 09:55:03;;;;;;;;;;;;;;;12.08;42.80;102119.31;1634439;86;20541;-74
2021/10/08 09:57:29;;;;;;;;;;;;;;;12.12;43.00;102119.45;1632954;86;20306;-72
2021/10/08 09:59:57;;;;;;;;;;;;;;;12.21;42.77;102124.50;1622132;86;20497;-74
2021/10/08 10:02:23;;;;;;;;;;;;;;;12.29;42.46;102118.61;1607546;87;20121;-74
2021/10/08 10:04:51;;;;;;;;;;;;;;;12.34;41.66;102123.92;1631280;86;20179;-79
2021/10/08 10:07:26;;;;;;;;;;;;;;;12.29;41.48;102119.94;1598381;88;20232;-75
2021/10/08 10:09:52;;;;;;;;;;;;;;;12.32;41.31;102118.37;1620517;86;20197;-73
2021/10/08 10:12:22;;;;;;;;;;;;;;;12.37;40.80;102114.91;1617635;87;20177;-74
2021/10/08 10:14:48;;;;;;;;;;;;;;;12.43;40.91;102115.75;1617562;87;20211;-76
2021/10/08 10:17:17;;;;;;;;;;;;;;;12.51;41.26;102113.34;1621518;87;20990;-73
2021/10/08 10:19:45;;;;;;;;;;;;;;;12.59;41.76;102122.50;1623603;87;20201;-73
2021/10/08 10:22:18;;;;;;;;;;;;;;;12.62;40.98;102114.31;1623078;87;20253;-74
2021/10/08 10:24:46;;;;;;;;;;;;;;;12.73;41.19;102122.25;1622830;87;20190;-73
2021/10/08 10:27:16;;;;;;;;;;;;;;;12.77;41.12;102125.03;1623551;87;39180;-74
2021/10/08 10:29:45;;;;;;;;;;;;;;;12.77;40.50;102126.35;1621958;87;20086;-76
2021/10/08 10:32:16;;;;;;;;;;;;;;;12.70;40.25;102123.33;1624789;87;20260;-73
2021/10/08 10:34:42;;;;;;;;;;;;;;;12.81;40.50;102119.82;1620900;87;20490;-76
2021/10/08 10:37:08;;;;;;;;;;;;;;;13.00;40.66;102113.05;1622112;87;20162;-76
2021/10/08 10:39:34;;;;;;;;;;;;;;;13.01;40.61;102112.09;1621124;87;21174;-73
2021/10/08 10:42:03;;;;;;;;;;;;;;;13.04;40.29;102107.86;1621752;87;20306;-74
2021/10/08 10:44:41;;;;;;;;;;;;;;;13.15;40.42;102109.16;1620692;87;20193;-73
2021/10/08 10:47:19;;;;;;;;;;;;;;;13.23;40.14;102107.20;1622572;87;20143;-75
2021/10/08 10:52:21;;;;;;;;;;;;;;;13.45;39.70;102101.00;1597219;86;20193;-76
2021/10/08 10:54:56;;;;;;;;;;;;;;;13.54;39.61;102112.18;1628928;86;21159;-73
2021/10/08 10:57:34;;;;;;;;;;;;;;;13.61;39.99;102104.54;1628672;86;20465;-72
2021/10/08 10:59:52;;;;;;;;;;;;;;;13.66;39.75;102091.75;1622211;86;20187;-72
2021/10/08 11:02:24;;;;;;;;;;;;;;;13.63;38.20;102095.48;1622785;87;20151;-74
2021/10/08 11:04:55;;;;;;;;;;;;;;;13.63;37.77;102103.45;1625471;86;22376;-74
2021/10/08 11:07:22;;;;;;;;;;;;;;;13.68;38.21;102096.92;1626905;86;20568;-72
2021/10/08 11:10:00;;;;;;;;;;;;;;;13.74;38.18;102092.43;1626141;87;20237;-72
2021/10/08 11:12:34;;;;;;;;;;;;;;;13.82;37.46;102100.58;1613289;87;20186;-74
2021/10/08 11:15:19;;;;;;;;;;;;;;;13.84;37.14;102099.95;1590433;88;21135;-74
2021/10/08 11:17:55;;;;;;;;;;;;;;;13.94;37.16;102099.55;1587578;88;22737;-73
2021/10/08 11:20:38;;;;;;;;;;;;;;;14.08;37.84;102102.86;1588458;88;20276;-73
2021/10/08 11:23:08;;;;;;;;;;;;;;;14.11;37.33;102097.28;1587774;89;20120;-72
2021/10/08 11:25:37;;;;;;;;;;;;;;;14.11;36.73;102099.94;1590995;88;20218;-76
2021/10/08 11:28:03;;;;;;;;;;;;;;;14.12;36.84;102095.82;1590080;89;20145;-71
2021/10/08 11:30:31;;;;;;;;;;;;;;;14.18;36.69;102097.09;1589209;88;21393;-73
2021/10/08 11:32:57;;;;;;;;;;;;;;;14.22;36.47;102095.03;1587361;89;20187;-77
2021/10/08 11:35:35;;;;;;;;;;;;;;;14.22;36.66;102095.03;1590352;88;20179;-72
2021/10/08 11:38:02;;;;;;;;;;;;;;;14.25;37.09;102090.28;1590944;89;20217;-74
2021/10/08 11:40:31;;;;;;;;;;;;;;;14.38;37.14;102087.89;1586508;88;20202;-73
2021/10/08 11:43:10;;;;;;;;;;;;;;;14.46;36.41;102090.72;1603768;89;21315;-72
2021/10/08 11:45:39;;;;;;;;;;;;;;;14.54;36.84;102086.89;1604070;87;20179;-75
2021/10/08 11:48:17;;;;;;;;;;;;;;;14.56;36.84;102088.95;1570920;89;20552;-72
2021/10/08 11:53:07;;;;;;;;;;;;;;;14.51;36.23;102084.03;1582055;89;20197;-74
2021/10/08 11:55:40;;;;;;;;;;;;;;;14.57;36.61;102083.12;1605345;87;21089;-72
2021/10/08 11:58:11;;;;;;;;;;;;;;;14.47;35.71;102079.12;1585901;87;20180;-74
2021/10/08 12:00:47;;;;;;;;;;;;;;;14.57;36.11;102073.33;1612215;87;20121;-72
2021/10/08 12:03:22;;;;;;;;;;;;;;;14.62;36.32;102079.13;1613428;87;20215;-80
2021/10/08 12:05:57;;;;;;;;;;;;;;;14.67;36.39;102076.91;1612454;87;20155;-75
2021/10/08 12:08:31;;;;;;;;;;;;;;;14.78;36.45;102079.94;1579609;88;20160;-72
2021/10/08 12:10:59;;;;;;;;;;;;;;;14.88;36.34;102079.95;1604155;87;20177;-72
2021/10/08 12:13:37;;;;;;;;;;;;;;;15.05;36.71;102076.61;1593383;88;20536;-73
2021/10/08 12:16:04;;;;;;;;;;;;;;;15.11;36.79;102081.05;1633526;86;20200;-73
2021/10/08 12:18:29;;;;;;;;;;;;;;;15.16;36.68;102079.64;1633561;86;20191;-73
2021/10/08 12:21:14;;;;;;;;;;;;;;;15.26;36.67;102079.67;1633673;86;21313;-74
2021/10/08 12:23:40;;;;;;;;;;;;;;;15.33;36.12;102083.43;1598358;88;20162;-74
2021/10/08 12:26:06;;;;;;;;;;;;;;;15.34;36.50;102074.47;1600817;87;20307;-73
2021/10/08 12:28:31;;;;;;;;;;;;;;;15.33;35.73;102078.11;1631887;86;20138;-72
2021/10/08 12:31:01;;;;;;;;;;;;;;;15.37;36.34;102074.20;1632717;86;20648;-73
2021/10/08 12:33:33;;;;;;;;;;;;;;;15.35;36.35;102077.50;1631635;86;21353;-74
2021/10/08 12:36:22;;;;;;;;;;;;;;;15.40;36.08;102073.91;1630861;86;20469;-73
2021/10/08 12:39:04;;;;;;;;;;;;;;;15.52;36.18;102076.42;1630388;86;20205;-73
2021/10/08 12:41:45;;;;;;;;;;;;;;;15.60;36.10;102084.56;1598617;88;20191;-74
2021/10/08 12:44:19;;;;;;;;;;;;;;;15.75;36.08;102064.50;1594403;88;20159;-74
2021/10/08 12:46:58;;;;;;;;;;;;;;;15.81;35.89;102070.27;1607547;87;21230;-74
2021/10/08 12:49:25;;;;;;;;;;;;;;;15.89;35.96;102062.38;1606327;87;20185;-73
2021/10/08 12:51:52;;;;;;;;;;;;;;;15.94;35.70;102065.45;1643878;86;20460;-72